sensor_id;sensor_type;location;lat;lon;timestamp;P1;durP1;ratioP1;P2;durP2;ratioP2
60100;SDS011;45978;53.646;55.930;2022-08-11T00:00:41;52.08;;;33.55;;
60100;SDS011;45978;53.646;55.930;2022-08-11T00:01:48;57.65;;;33.40;;
60100;SDS011;45978;53.646;55.930;2022-08-11T00:02:51;51.35;;;33.53;;
60100;SDS011;45978;53.646;55.930;2022-08-11T00:03:54;44.25;;;31.23;;
60100;SDS011;45978;53.646;55.930;2022-08-11T00:05:00;57.47;;;33.13;;
60100;SDS011;45978;53.646;55.930;2022-08-11T00:06:08;49.33;;;33.13;;
60100;SDS011;45978;53.646;55.930;2022-08-11T00:07:10;48.33;;;31.95;;
60100;SDS011;45978;53.646;55.930;2022-08-11T00:08:22;47.25;;;32.63;;
60100;SDS011;45978;53.646;55.930;2022-08-11T00:09:30;50.72;;;32.78;;
60100;SDS011;45978;53.646;55.930;2022-08-11T00:10:33;49.40;;;32.20;;
60100;SDS011;45978;53.646;55.930;2022-08-11T00:11:35;52.20;;;32.67;;
60100;SDS011;45978;53.646;55.930;2022-08-11T00:12:58;44.70;;;32.33;;
60100;SDS011;45978;53.646;55.930;2022-08-11T00:14:04;56.10;;;33.63;;
60100;SDS011;45978;53.646;55.930;2022-08-11T00:15:15;47.58;;;32.88;;
60100;SDS011;45978;53.646;55.930;2022-08-11T00:16:21;53.58;;;32.90;;
60100;SDS011;45978;53.646;55.930;2022-08-11T00:17:28;49.15;;;34.45;;
60100;SDS011;45978;53.646;55.930;2022-08-11T00:18:53;47.30;;;32.95;;
60100;SDS011;45978;53.646;55.930;2022-08-11T00:19:59;54.00;;;35.10;;
60100;SDS011;45978;53.646;55.930;2022-08-11T00:21:06;48.67;;;33.90;;
60100;SDS011;45978;53.646;55.930;2022-08-11T00:22:07;51.65;;;34.42;;
60100;SDS011;45978;53.646;55.930;2022-08-11T00:23:14;48.63;;;32.78;;
60100;SDS011;45978;53.646;55.930;2022-08-11T00:24:17;52.08;;;34.15;;
60100;SDS011;45978;53.646;55.930;2022-08-11T00:25:20;48.85;;;33.67;;
60100;SDS011;45978;53.646;55.930;2022-08-11T00:26:23;54.15;;;34.63;;
60100;SDS011;45978;53.646;55.930;2022-08-11T00:27:32;53.47;;;34.45;;
60100;SDS011;45978;53.646;55.930;2022-08-11T00:28:36;48.45;;;33.75;;
60100;SDS011;45978;53.646;55.930;2022-08-11T00:29:38;50.58;;;33.17;;
60100;SDS011;45978;53.646;55.930;2022-08-11T00:30:39;50.40;;;35.25;;
60100;SDS011;45978;53.646;55.930;2022-08-11T00:31:51;51.83;;;33.42;;
60100;SDS011;45978;53.646;55.930;2022-08-11T00:32:55;55.15;;;36.47;;
60100;SDS011;45978;53.646;55.930;2022-08-11T00:33:58;49.75;;;34.75;;
60100;SDS011;45978;53.646;55.930;2022-08-11T00:35:03;53.35;;;33.67;;
60100;SDS011;45978;53.646;55.930;2022-08-11T00:36:07;54.10;;;35.15;;
60100;SDS011;45978;53.646;55.930;2022-08-11T00:37:15;47.47;;;33.35;;
60100;SDS011;45978;53.646;55.930;2022-08-11T00:38:22;55.20;;;34.22;;
60100;SDS011;45978;53.646;55.930;2022-08-11T00:39:26;50.47;;;33.80;;
60100;SDS011;45978;53.646;55.930;2022-08-11T00:40:34;55.22;;;33.83;;
60100;SDS011;45978;53.646;55.930;2022-08-11T00:44:37;51.80;;;34.15;;
60100;SDS011;45978;53.646;55.930;2022-08-11T00:45:41;55.22;;;34.90;;
60100;SDS011;45978;53.646;55.930;2022-08-11T00:48:27;53.78;;;35.33;;
60100;SDS011;45978;53.646;55.930;2022-08-11T00:49:45;54.15;;;33.63;;
60100;SDS011;45978;53.646;55.930;2022-08-11T01:04:08;48.30;;;33.75;;
60100;SDS011;45978;53.646;55.930;2022-08-11T01:17:44;49.55;;;31.80;;
60100;SDS011;45978;53.646;55.930;2022-08-11T01:31:07;45.95;;;32.17;;
60100;SDS011;45978;53.646;55.930;2022-08-11T01:35:47;43.85;;;30.25;;
60100;SDS011;45978;53.646;55.930;2022-08-11T01:42:20;48.08;;;31.02;;
60100;SDS011;45978;53.646;55.930;2022-08-11T01:44:27;46.25;;;29.95;;
60100;SDS011;45978;53.646;55.930;2022-08-11T01:45:44;43.63;;;28.67;;
60100;SDS011;45978;53.646;55.930;2022-08-11T01:47:16;55.47;;;29.52;;
60100;SDS011;45978;53.646;55.930;2022-08-11T01:49:06;40.28;;;29.80;;
60100;SDS011;45978;53.646;55.930;2022-08-11T01:55:00;48.58;;;30.85;;
60100;SDS011;45978;53.646;55.930;2022-08-11T01:58:42;44.35;;;27.30;;
60100;SDS011;45978;53.646;55.930;2022-08-11T01:59:53;51.08;;;29.67;;
60100;SDS011;45978;53.646;55.930;2022-08-11T02:03:57;42.17;;;28.95;;
60100;SDS011;45978;53.646;55.930;2022-08-11T02:08:17;41.33;;;28.77;;
60100;SDS011;45978;53.646;55.930;2022-08-11T02:12:35;54.08;;;30.60;;
60100;SDS011;45978;53.646;55.930;2022-08-11T02:13:56;51.45;;;29.67;;
60100;SDS011;45978;53.646;55.930;2022-08-11T02:15:14;60.50;;;29.02;;
60100;SDS011;45978;53.646;55.930;2022-08-11T02:18:05;53.50;;;28.02;;
60100;SDS011;45978;53.646;55.930;2022-08-11T02:21:05;52.08;;;29.08;;
60100;SDS011;45978;53.646;55.930;2022-08-11T02:24:27;45.97;;;28.40;;
60100;SDS011;45978;53.646;55.930;2022-08-11T02:26:59;42.05;;;29.45;;
60100;SDS011;45978;53.646;55.930;2022-08-11T02:29:28;49.72;;;28.05;;
60100;SDS011;45978;53.646;55.930;2022-08-11T02:30:46;48.92;;;29.60;;
60100;SDS011;45978;53.646;55.930;2022-08-11T02:32:24;56.42;;;30.25;;
60100;SDS011;45978;53.646;55.930;2022-08-11T02:33:53;62.45;;;31.13;;
60100;SDS011;45978;53.646;55.930;2022-08-11T02:36:26;68.35;;;31.20;;
60100;SDS011;45978;53.646;55.930;2022-08-11T02:45:54;49.45;;;31.40;;
60100;SDS011;45978;53.646;55.930;2022-08-11T02:47:12;48.67;;;33.10;;
60100;SDS011;45978;53.646;55.930;2022-08-11T02:50:22;54.42;;;29.90;;
60100;SDS011;45978;53.646;55.930;2022-08-11T02:51:41;47.97;;;30.42;;
60100;SDS011;45978;53.646;55.930;2022-08-11T02:53:25;43.35;;;31.67;;
60100;SDS011;45978;53.646;55.930;2022-08-11T02:59:06;51.80;;;28.80;;
60100;SDS011;45978;53.646;55.930;2022-08-11T03:00:33;45.45;;;27.80;;
60100;SDS011;45978;53.646;55.930;2022-08-11T03:01:48;47.72;;;27.92;;
60100;SDS011;45978;53.646;55.930;2022-08-11T03:04:40;53.30;;;28.90;;
60100;SDS011;45978;53.646;55.930;2022-08-11T03:06:59;57.88;;;29.45;;
60100;SDS011;45978;53.646;55.930;2022-08-11T03:08:13;45.78;;;27.10;;
60100;SDS011;45978;53.646;55.930;2022-08-11T03:09:42;49.63;;;28.40;;
60100;SDS011;45978;53.646;55.930;2022-08-11T03:12:17;53.42;;;28.77;;
60100;SDS011;45978;53.646;55.930;2022-08-11T03:13:48;48.58;;;28.15;;
60100;SDS011;45978;53.646;55.930;2022-08-11T03:15:47;50.83;;;27.48;;
60100;SDS011;45978;53.646;55.930;2022-08-11T03:17:29;47.10;;;29.63;;
60100;SDS011;45978;53.646;55.930;2022-08-11T03:18:40;47.70;;;28.83;;
60100;SDS011;45978;53.646;55.930;2022-08-11T03:21:20;45.88;;;27.92;;
60100;SDS011;45978;53.646;55.930;2022-08-11T03:22:29;41.65;;;28.20;;
60100;SDS011;45978;53.646;55.930;2022-08-11T03:28:03;46.63;;;28.40;;
60100;SDS011;45978;53.646;55.930;2022-08-11T03:30:38;44.40;;;28.60;;
60100;SDS011;45978;53.646;55.930;2022-08-11T03:31:58;45.92;;;28.23;;
60100;SDS011;45978;53.646;55.930;2022-08-11T03:34:38;46.28;;;29.05;;
60100;SDS011;45978;53.646;55.930;2022-08-11T03:35:53;45.28;;;31.80;;
60100;SDS011;45978;53.646;55.930;2022-08-11T03:41:19;48.28;;;29.33;;
60100;SDS011;45978;53.646;55.930;2022-08-11T03:42:49;58.63;;;31.98;;
60100;SDS011;45978;53.646;55.930;2022-08-11T03:44:02;56.90;;;31.17;;
60100;SDS011;45978;53.646;55.930;2022-08-11T03:45:16;50.42;;;30.25;;
60100;SDS011;45978;53.646;55.930;2022-08-11T03:46:40;49.25;;;29.42;;
60100;SDS011;45978;53.646;55.930;2022-08-11T03:48:12;55.40;;;29.55;;
60100;SDS011;45978;53.646;55.930;2022-08-11T03:58:31;51.55;;;31.40;;
60100;SDS011;45978;53.646;55.930;2022-08-11T04:09:10;43.28;;;30.33;;
60100;SDS011;45978;53.646;55.930;2022-08-11T04:13:25;43.45;;;32.03;;
60100;SDS011;45978;53.646;55.930;2022-08-11T04:16:23;53.13;;;31.67;;
60100;SDS011;45978;53.646;55.930;2022-08-11T04:25:55;45.85;;;31.30;;
60100;SDS011;45978;53.646;55.930;2022-08-11T04:38:23;50.67;;;30.05;;
60100;SDS011;45978;53.646;55.930;2022-08-11T04:48:01;63.28;;;30.50;;
60100;SDS011;45978;53.646;55.930;2022-08-11T04:49:49;54.60;;;29.73;;
60100;SDS011;45978;53.646;55.930;2022-08-11T04:54:44;50.25;;;29.27;;
60100;SDS011;45978;53.646;55.930;2022-08-11T04:56:27;56.00;;;28.48;;
60100;SDS011;45978;53.646;55.930;2022-08-11T04:58:09;53.33;;;27.50;;
60100;SDS011;45978;53.646;55.930;2022-08-11T05:00:05;47.08;;;28.65;;
60100;SDS011;45978;53.646;55.930;2022-08-11T05:04:20;55.35;;;31.15;;
60100;SDS011;45978;53.646;55.930;2022-08-11T05:13:22;41.33;;;30.48;;
60100;SDS011;45978;53.646;55.930;2022-08-11T05:15:09;49.72;;;31.52;;
60100;SDS011;45978;53.646;55.930;2022-08-11T05:16:46;43.58;;;28.65;;
60100;SDS011;45978;53.646;55.930;2022-08-11T05:18:14;47.13;;;29.83;;
60100;SDS011;45978;53.646;55.930;2022-08-11T05:19:42;57.97;;;29.98;;
60100;SDS011;45978;53.646;55.930;2022-08-11T05:21:10;52.55;;;30.08;;
60100;SDS011;45978;53.646;55.930;2022-08-11T05:22:33;53.13;;;29.98;;
60100;SDS011;45978;53.646;55.930;2022-08-11T05:24:02;49.65;;;30.25;;
60100;SDS011;45978;53.646;55.930;2022-08-11T05:25:26;42.25;;;30.33;;
60100;SDS011;45978;53.646;55.930;2022-08-11T05:26:50;44.25;;;29.60;;
60100;SDS011;45978;53.646;55.930;2022-08-11T05:28:15;44.25;;;29.85;;
60100;SDS011;45978;53.646;55.930;2022-08-11T05:29:48;43.17;;;29.90;;
60100;SDS011;45978;53.646;55.930;2022-08-11T05:31:15;46.33;;;30.08;;
60100;SDS011;45978;53.646;55.930;2022-08-11T05:32:41;47.00;;;30.30;;
60100;SDS011;45978;53.646;55.930;2022-08-11T05:34:24;53.22;;;30.42;;
60100;SDS011;45978;53.646;55.930;2022-08-11T05:35:47;43.88;;;29.63;;
60100;SDS011;45978;53.646;55.930;2022-08-11T05:36:54;50.50;;;31.08;;
60100;SDS011;45978;53.646;55.930;2022-08-11T05:38:04;46.42;;;30.52;;
60100;SDS011;45978;53.646;55.930;2022-08-11T05:39:32;56.15;;;30.30;;
60100;SDS011;45978;53.646;55.930;2022-08-11T05:41:04;38.35;;;29.48;;
60100;SDS011;45978;53.646;55.930;2022-08-11T05:42:26;55.13;;;31.38;;
60100;SDS011;45978;53.646;55.930;2022-08-11T05:43:48;44.88;;;30.48;;
60100;SDS011;45978;53.646;55.930;2022-08-11T05:45:11;49.35;;;30.27;;
60100;SDS011;45978;53.646;55.930;2022-08-11T05:46:41;38.20;;;29.85;;
60100;SDS011;45978;53.646;55.930;2022-08-11T05:48:04;41.05;;;30.20;;
60100;SDS011;45978;53.646;55.930;2022-08-11T05:49:28;55.38;;;28.98;;
60100;SDS011;45978;53.646;55.930;2022-08-11T05:50:53;48.90;;;29.70;;
60100;SDS011;45978;53.646;55.930;2022-08-11T05:52:26;41.47;;;30.27;;
60100;SDS011;45978;53.646;55.930;2022-08-11T05:53:53;54.97;;;30.00;;
60100;SDS011;45978;53.646;55.930;2022-08-11T05:55:15;43.55;;;29.63;;
60100;SDS011;45978;53.646;55.930;2022-08-11T05:56:53;46.63;;;30.05;;
60100;SDS011;45978;53.646;55.930;2022-08-11T05:58:04;57.08;;;29.02;;
60100;SDS011;45978;53.646;55.930;2022-08-11T05:59:12;44.85;;;28.33;;
60100;SDS011;45978;53.646;55.930;2022-08-11T06:00:18;53.00;;;29.27;;
60100;SDS011;45978;53.646;55.930;2022-08-11T06:01:27;49.80;;;30.35;;
60100;SDS011;45978;53.646;55.930;2022-08-11T06:02:30;39.60;;;29.48;;
60100;SDS011;45978;53.646;55.930;2022-08-11T06:03:32;43.08;;;29.23;;
60100;SDS011;45978;53.646;55.930;2022-08-11T06:04:57;49.28;;;30.60;;
60100;SDS011;45978;53.646;55.930;2022-08-11T06:06:00;42.70;;;27.98;;
60100;SDS011;45978;53.646;55.930;2022-08-11T06:07:09;43.53;;;29.10;;
60100;SDS011;45978;53.646;55.930;2022-08-11T06:08:12;52.67;;;29.92;;
60100;SDS011;45978;53.646;55.930;2022-08-11T06:09:14;46.92;;;29.23;;
60100;SDS011;45978;53.646;55.930;2022-08-11T06:10:24;53.15;;;30.40;;
60100;SDS011;45978;53.646;55.930;2022-08-11T06:11:29;48.55;;;28.80;;
60100;SDS011;45978;53.646;55.930;2022-08-11T06:12:32;43.55;;;29.60;;
60100;SDS011;45978;53.646;55.930;2022-08-11T06:13:46;49.30;;;30.63;;
60100;SDS011;45978;53.646;55.930;2022-08-11T06:15:00;46.08;;;29.45;;
60100;SDS011;45978;53.646;55.930;2022-08-11T06:16:04;44.95;;;29.35;;
60100;SDS011;45978;53.646;55.930;2022-08-11T06:17:09;40.00;;;28.83;;
60100;SDS011;45978;53.646;55.930;2022-08-11T06:18:13;53.05;;;30.40;;
60100;SDS011;45978;53.646;55.930;2022-08-11T06:19:19;51.75;;;29.90;;
60100;SDS011;45978;53.646;55.930;2022-08-11T06:20:23;46.60;;;29.00;;
60100;SDS011;45978;53.646;55.930;2022-08-11T06:21:26;46.28;;;28.67;;
60100;SDS011;45978;53.646;55.930;2022-08-11T06:22:28;48.28;;;29.15;;
60100;SDS011;45978;53.646;55.930;2022-08-11T06:23:31;52.55;;;28.83;;
60100;SDS011;45978;53.646;55.930;2022-08-11T06:24:34;48.58;;;29.30;;
60100;SDS011;45978;53.646;55.930;2022-08-11T06:25:37;46.45;;;31.13;;
60100;SDS011;45978;53.646;55.930;2022-08-11T06:26:40;53.10;;;31.85;;
60100;SDS011;45978;53.646;55.930;2022-08-11T06:27:54;54.88;;;30.67;;
60100;SDS011;45978;53.646;55.930;2022-08-11T06:29:04;44.35;;;30.77;;
60100;SDS011;45978;53.646;55.930;2022-08-11T06:30:08;49.50;;;30.70;;
60100;SDS011;45978;53.646;55.930;2022-08-11T06:31:21;51.90;;;31.20;;
60100;SDS011;45978;53.646;55.930;2022-08-11T06:32:30;50.70;;;30.15;;
60100;SDS011;45978;53.646;55.930;2022-08-11T06:36:31;42.47;;;27.85;;
60100;SDS011;45978;53.646;55.930;2022-08-11T06:40:57;50.30;;;29.75;;
60100;SDS011;45978;53.646;55.930;2022-08-11T06:42:40;52.90;;;28.98;;
60100;SDS011;45978;53.646;55.930;2022-08-11T06:43:53;53.53;;;30.02;;
60100;SDS011;45978;53.646;55.930;2022-08-11T06:45:15;37.78;;;28.40;;
60100;SDS011;45978;53.646;55.930;2022-08-11T06:46:31;44.97;;;27.02;;
60100;SDS011;45978;53.646;55.930;2022-08-11T06:47:44;40.28;;;27.63;;
60100;SDS011;45978;53.646;55.930;2022-08-11T06:48:47;40.90;;;27.33;;
60100;SDS011;45978;53.646;55.930;2022-08-11T06:49:49;43.40;;;27.70;;
60100;SDS011;45978;53.646;55.930;2022-08-11T06:51:09;44.13;;;26.98;;
60100;SDS011;45978;53.646;55.930;2022-08-11T06:52:12;46.88;;;27.55;;
60100;SDS011;45978;53.646;55.930;2022-08-11T06:53:18;36.55;;;29.15;;
60100;SDS011;45978;53.646;55.930;2022-08-11T06:54:35;44.22;;;27.33;;
60100;SDS011;45978;53.646;55.930;2022-08-11T06:55:43;39.25;;;25.80;;
60100;SDS011;45978;53.646;55.930;2022-08-11T06:57:05;51.67;;;28.73;;
60100;SDS011;45978;53.646;55.930;2022-08-11T06:58:31;39.17;;;27.38;;
60100;SDS011;45978;53.646;55.930;2022-08-11T06:59:54;47.72;;;27.88;;
60100;SDS011;45978;53.646;55.930;2022-08-11T07:02:56;49.92;;;28.65;;
60100;SDS011;45978;53.646;55.930;2022-08-11T07:04:10;43.78;;;26.92;;
60100;SDS011;45978;53.646;55.930;2022-08-11T07:12:42;57.63;;;31.33;;
60100;SDS011;45978;53.646;55.930;2022-08-11T07:14:05;52.53;;;32.80;;
60100;SDS011;45978;53.646;55.930;2022-08-11T07:15:30;47.20;;;30.60;;
60100;SDS011;45978;53.646;55.930;2022-08-11T07:16:43;59.88;;;29.77;;
60100;SDS011;45978;53.646;55.930;2022-08-11T07:17:51;46.55;;;29.25;;
60100;SDS011;45978;53.646;55.930;2022-08-11T07:19:19;57.78;;;30.02;;
60100;SDS011;45978;53.646;55.930;2022-08-11T07:20:45;49.95;;;29.42;;
60100;SDS011;45978;53.646;55.930;2022-08-11T07:22:05;42.90;;;26.70;;
60100;SDS011;45978;53.646;55.930;2022-08-11T07:23:43;45.50;;;26.08;;
60100;SDS011;45978;53.646;55.930;2022-08-11T07:25:55;40.35;;;22.95;;
60100;SDS011;45978;53.646;55.930;2022-08-11T07:27:29;33.95;;;22.13;;
60100;SDS011;45978;53.646;55.930;2022-08-11T07:28:54;36.70;;;20.73;;
60100;SDS011;45978;53.646;55.930;2022-08-11T07:29:58;60.65;;;22.30;;
60100;SDS011;45978;53.646;55.930;2022-08-11T07:31:03;44.33;;;23.60;;
60100;SDS011;45978;53.646;55.930;2022-08-11T07:32:11;34.72;;;23.13;;
60100;SDS011;45978;53.646;55.930;2022-08-11T07:33:38;48.10;;;22.95;;
60100;SDS011;45978;53.646;55.930;2022-08-11T07:35:09;38.78;;;22.75;;
60100;SDS011;45978;53.646;55.930;2022-08-11T07:36:13;45.42;;;23.38;;
60100;SDS011;45978;53.646;55.930;2022-08-11T07:37:16;40.15;;;21.98;;
60100;SDS011;45978;53.646;55.930;2022-08-11T07:38:28;38.17;;;22.50;;
60100;SDS011;45978;53.646;55.930;2022-08-11T07:39:46;35.55;;;21.77;;
60100;SDS011;45978;53.646;55.930;2022-08-11T07:42:31;40.08;;;22.38;;
60100;SDS011;45978;53.646;55.930;2022-08-11T07:43:41;36.33;;;23.00;;
60100;SDS011;45978;53.646;55.930;2022-08-11T07:44:44;45.72;;;22.88;;
60100;SDS011;45978;53.646;55.930;2022-08-11T07:46:11;43.55;;;21.52;;
60100;SDS011;45978;53.646;55.930;2022-08-11T07:47:52;25.63;;;20.95;;
60100;SDS011;45978;53.646;55.930;2022-08-11T07:49:14;31.88;;;20.30;;
60100;SDS011;45978;53.646;55.930;2022-08-11T07:50:40;30.85;;;19.95;;
60100;SDS011;45978;53.646;55.930;2022-08-11T07:52:01;29.50;;;21.30;;
60100;SDS011;45978;53.646;55.930;2022-08-11T07:53:22;39.17;;;18.63;;
60100;SDS011;45978;53.646;55.930;2022-08-11T07:54:24;25.40;;;19.23;;
60100;SDS011;45978;53.646;55.930;2022-08-11T07:55:29;25.20;;;18.55;;
60100;SDS011;45978;53.646;55.930;2022-08-11T07:56:36;32.03;;;20.20;;
60100;SDS011;45978;53.646;55.930;2022-08-11T07:57:47;32.30;;;19.67;;
60100;SDS011;45978;53.646;55.930;2022-08-11T07:59:40;31.02;;;18.52;;
60100;SDS011;45978;53.646;55.930;2022-08-11T08:01:00;31.33;;;19.27;;
60100;SDS011;45978;53.646;55.930;2022-08-11T08:02:20;28.90;;;19.42;;
60100;SDS011;45978;53.646;55.930;2022-08-11T08:03:41;28.73;;;19.25;;
60100;SDS011;45978;53.646;55.930;2022-08-11T08:05:02;27.02;;;18.77;;
60100;SDS011;45978;53.646;55.930;2022-08-11T08:06:29;20.73;;;16.95;;
60100;SDS011;45978;53.646;55.930;2022-08-11T08:07:54;24.83;;;16.75;;
60100;SDS011;45978;53.646;55.930;2022-08-11T08:09:16;22.25;;;16.77;;
60100;SDS011;45978;53.646;55.930;2022-08-11T08:10:41;22.60;;;16.55;;
60100;SDS011;45978;53.646;55.930;2022-08-11T08:12:03;18.55;;;15.90;;
60100;SDS011;45978;53.646;55.930;2022-08-11T08:13:26;36.92;;;16.20;;
60100;SDS011;45978;53.646;55.930;2022-08-11T08:14:46;27.55;;;16.00;;
60100;SDS011;45978;53.646;55.930;2022-08-11T08:16:08;25.15;;;15.02;;
60100;SDS011;45978;53.646;55.930;2022-08-11T08:17:30;31.42;;;16.88;;
60100;SDS011;45978;53.646;55.930;2022-08-11T08:18:51;33.70;;;15.98;;
60100;SDS011;45978;53.646;55.930;2022-08-11T08:19:56;43.50;;;17.05;;
60100;SDS011;45978;53.646;55.930;2022-08-11T08:20:59;32.47;;;16.15;;
60100;SDS011;45978;53.646;55.930;2022-08-11T08:22:14;25.45;;;16.10;;
60100;SDS011;45978;53.646;55.930;2022-08-11T08:23:21;21.08;;;16.23;;
60100;SDS011;45978;53.646;55.930;2022-08-11T08:24:35;22.20;;;16.90;;
60100;SDS011;45978;53.646;55.930;2022-08-11T08:25:38;25.98;;;16.23;;
60100;SDS011;45978;53.646;55.930;2022-08-11T08:26:41;27.42;;;16.77;;
60100;SDS011;45978;53.646;55.930;2022-08-11T08:28:02;30.55;;;21.85;;
60100;SDS011;45978;53.646;55.930;2022-08-11T08:29:27;32.15;;;17.83;;
60100;SDS011;45978;53.646;55.930;2022-08-11T08:30:57;26.10;;;16.83;;
60100;SDS011;45978;53.646;55.930;2022-08-11T08:32:00;22.60;;;16.92;;
60100;SDS011;45978;53.646;55.930;2022-08-11T08:33:02;32.15;;;17.67;;
60100;SDS011;45978;53.646;55.930;2022-08-11T08:34:04;25.63;;;16.08;;
60100;SDS011;45978;53.646;55.930;2022-08-11T08:35:07;22.08;;;16.33;;
60100;SDS011;45978;53.646;55.930;2022-08-11T08:36:11;28.80;;;16.83;;
60100;SDS011;45978;53.646;55.930;2022-08-11T08:37:18;29.58;;;16.52;;
60100;SDS011;45978;53.646;55.930;2022-08-11T08:38:29;24.15;;;16.55;;
60100;SDS011;45978;53.646;55.930;2022-08-11T08:39:30;27.48;;;15.30;;
60100;SDS011;45978;53.646;55.930;2022-08-11T08:40:39;18.63;;;14.10;;
60100;SDS011;45978;53.646;55.930;2022-08-11T08:41:43;16.10;;;13.00;;
60100;SDS011;45978;53.646;55.930;2022-08-11T08:42:51;15.32;;;13.70;;
60100;SDS011;45978;53.646;55.930;2022-08-11T08:43:59;20.45;;;12.88;;
60100;SDS011;45978;53.646;55.930;2022-08-11T08:45:08;21.45;;;13.30;;
60100;SDS011;45978;53.646;55.930;2022-08-11T08:46:12;23.98;;;12.63;;
60100;SDS011;45978;53.646;55.930;2022-08-11T08:47:15;20.02;;;14.57;;
60100;SDS011;45978;53.646;55.930;2022-08-11T08:48:19;17.85;;;14.10;;
60100;SDS011;45978;53.646;55.930;2022-08-11T08:49:26;21.52;;;13.55;;
60100;SDS011;45978;53.646;55.930;2022-08-11T08:50:36;16.00;;;12.70;;
60100;SDS011;45978;53.646;55.930;2022-08-11T08:52:03;16.13;;;13.13;;
60100;SDS011;45978;53.646;55.930;2022-08-11T08:53:08;16.52;;;12.13;;
60100;SDS011;45978;53.646;55.930;2022-08-11T08:54:13;88.70;;;14.10;;
60100;SDS011;45978;53.646;55.930;2022-08-11T08:55:19;35.65;;;11.95;;
60100;SDS011;45978;53.646;55.930;2022-08-11T08:56:26;22.58;;;12.75;;
60100;SDS011;45978;53.646;55.930;2022-08-11T08:57:30;44.20;;;13.10;;
60100;SDS011;45978;53.646;55.930;2022-08-11T08:58:37;61.58;;;15.63;;
60100;SDS011;45978;53.646;55.930;2022-08-11T08:59:44;55.95;;;13.60;;
60100;SDS011;45978;53.646;55.930;2022-08-11T09:00:50;48.47;;;14.52;;
60100;SDS011;45978;53.646;55.930;2022-08-11T09:01:58;40.25;;;14.68;;
60100;SDS011;45978;53.646;55.930;2022-08-11T09:03:02;68.20;;;18.38;;
60100;SDS011;45978;53.646;55.930;2022-08-11T09:04:06;60.03;;;17.65;;
60100;SDS011;45978;53.646;55.930;2022-08-11T09:05:11;42.33;;;16.05;;
60100;SDS011;45978;53.646;55.930;2022-08-11T09:06:17;38.10;;;14.63;;
60100;SDS011;45978;53.646;55.930;2022-08-11T09:07:21;25.95;;;12.88;;
60100;SDS011;45978;53.646;55.930;2022-08-11T09:08:31;26.95;;;14.27;;
60100;SDS011;45978;53.646;55.930;2022-08-11T09:09:35;26.17;;;13.70;;
60100;SDS011;45978;53.646;55.930;2022-08-11T09:10:37;32.33;;;14.45;;
60100;SDS011;45978;53.646;55.930;2022-08-11T09:11:39;28.50;;;14.35;;
60100;SDS011;45978;53.646;55.930;2022-08-11T09:12:50;21.95;;;13.50;;
60100;SDS011;45978;53.646;55.930;2022-08-11T09:13:54;20.42;;;13.70;;
60100;SDS011;45978;53.646;55.930;2022-08-11T09:15:03;20.20;;;14.00;;
60100;SDS011;45978;53.646;55.930;2022-08-11T09:16:14;18.10;;;13.85;;
60100;SDS011;45978;53.646;55.930;2022-08-11T09:17:17;31.17;;;16.77;;
60100;SDS011;45978;53.646;55.930;2022-08-11T09:18:19;28.30;;;14.45;;
60100;SDS011;45978;53.646;55.930;2022-08-11T09:19:21;20.17;;;14.98;;
60100;SDS011;45978;53.646;55.930;2022-08-11T09:20:27;22.33;;;14.77;;
60100;SDS011;45978;53.646;55.930;2022-08-11T09:21:39;28.20;;;15.75;;
60100;SDS011;45978;53.646;55.930;2022-08-11T09:22:43;25.95;;;16.17;;
60100;SDS011;45978;53.646;55.930;2022-08-11T09:24:03;20.13;;;14.38;;
60100;SDS011;45978;53.646;55.930;2022-08-11T09:25:24;24.15;;;14.60;;
60100;SDS011;45978;53.646;55.930;2022-08-11T09:26:45;21.58;;;15.02;;
60100;SDS011;45978;53.646;55.930;2022-08-11T09:28:00;24.55;;;14.68;;
60100;SDS011;45978;53.646;55.930;2022-08-11T09:29:04;17.85;;;14.88;;
60100;SDS011;45978;53.646;55.930;2022-08-11T09:30:08;17.10;;;14.05;;
60100;SDS011;45978;53.646;55.930;2022-08-11T09:31:13;21.35;;;13.95;;
60100;SDS011;45978;53.646;55.930;2022-08-11T09:32:20;30.08;;;14.75;;
60100;SDS011;45978;53.646;55.930;2022-08-11T09:33:23;22.17;;;14.45;;
60100;SDS011;45978;53.646;55.930;2022-08-11T09:34:25;18.20;;;13.60;;
60100;SDS011;45978;53.646;55.930;2022-08-11T09:35:32;21.73;;;13.63;;
60100;SDS011;45978;53.646;55.930;2022-08-11T09:36:37;25.48;;;14.05;;
60100;SDS011;45978;53.646;55.930;2022-08-11T09:38:00;16.90;;;15.13;;
60100;SDS011;45978;53.646;55.930;2022-08-11T09:39:21;18.23;;;13.65;;
60100;SDS011;45978;53.646;55.930;2022-08-11T09:40:44;16.27;;;13.38;;
60100;SDS011;45978;53.646;55.930;2022-08-11T09:41:46;15.13;;;12.65;;
60100;SDS011;45978;53.646;55.930;2022-08-11T09:42:49;20.25;;;11.85;;
60100;SDS011;45978;53.646;55.930;2022-08-11T09:44:13;17.98;;;14.15;;
60100;SDS011;45978;53.646;55.930;2022-08-11T09:45:37;19.15;;;11.90;;
60100;SDS011;45978;53.646;55.930;2022-08-11T09:46:40;14.20;;;11.40;;
60100;SDS011;45978;53.646;55.930;2022-08-11T09:47:41;14.98;;;12.52;;
60100;SDS011;45978;53.646;55.930;2022-08-11T09:48:45;13.90;;;12.52;;
60100;SDS011;45978;53.646;55.930;2022-08-11T09:49:51;14.38;;;12.90;;
60100;SDS011;45978;53.646;55.930;2022-08-11T09:50:59;15.93;;;12.35;;
60100;SDS011;45978;53.646;55.930;2022-08-11T09:52:01;13.05;;;11.70;;
60100;SDS011;45978;53.646;55.930;2022-08-11T09:53:07;23.63;;;13.48;;
60100;SDS011;45978;53.646;55.930;2022-08-11T09:54:12;17.42;;;13.07;;
60100;SDS011;45978;53.646;55.930;2022-08-11T09:55:19;17.52;;;13.02;;
60100;SDS011;45978;53.646;55.930;2022-08-11T09:56:21;14.50;;;11.82;;
60100;SDS011;45978;53.646;55.930;2022-08-11T09:57:47;14.45;;;11.55;;
60100;SDS011;45978;53.646;55.930;2022-08-11T09:59:10;15.05;;;12.15;;
60100;SDS011;45978;53.646;55.930;2022-08-11T10:00:12;15.02;;;11.27;;
60100;SDS011;45978;53.646;55.930;2022-08-11T10:01:19;18.30;;;12.35;;
60100;SDS011;45978;53.646;55.930;2022-08-11T10:02:29;13.57;;;10.73;;
60100;SDS011;45978;53.646;55.930;2022-08-11T10:03:31;13.88;;;11.40;;
60100;SDS011;45978;53.646;55.930;2022-08-11T10:04:39;12.30;;;10.40;;
60100;SDS011;45978;53.646;55.930;2022-08-11T10:06:18;23.60;;;11.18;;
60100;SDS011;45978;53.646;55.930;2022-08-11T10:07:38;13.98;;;11.30;;
60100;SDS011;45978;53.646;55.930;2022-08-11T10:08:42;12.52;;;10.63;;
60100;SDS011;45978;53.646;55.930;2022-08-11T10:09:48;18.08;;;10.93;;
60100;SDS011;45978;53.646;55.930;2022-08-11T10:10:50;12.98;;;10.40;;
60100;SDS011;45978;53.646;55.930;2022-08-11T10:11:55;16.40;;;10.55;;
60100;SDS011;45978;53.646;55.930;2022-08-11T10:13:13;21.92;;;10.52;;
60100;SDS011;45978;53.646;55.930;2022-08-11T10:14:19;15.75;;;9.55;;
60100;SDS011;45978;53.646;55.930;2022-08-11T10:15:39;21.23;;;11.25;;
60100;SDS011;45978;53.646;55.930;2022-08-11T10:16:43;12.57;;;11.25;;
60100;SDS011;45978;53.646;55.930;2022-08-11T10:17:46;20.17;;;10.95;;
60100;SDS011;45978;53.646;55.930;2022-08-11T10:19:11;18.63;;;11.32;;